sensor_id;sensor_type;location;lat;lon;timestamp;temperature;humidity
33931;DHT22;20215;53.130;6.408;2022-09-06T00:01:18;27.90;50.40
33931;DHT22;20215;53.130;6.408;2022-09-06T00:03:44;27.90;50.50
33931;DHT22;20215;53.130;6.408;2022-09-06T00:06:12;27.80;50.30
33931;DHT22;20215;53.130;6.408;2022-09-06T00:08:39;27.80;50.40
33931;DHT22;20215;53.130;6.408;2022-09-06T00:11:05;27.80;50.40
33931;DHT22;20215;53.130;6.408;2022-09-06T00:13:32;27.80;50.30
33931;DHT22;20215;53.130;6.408;2022-09-06T00:16:19;27.90;50.40
33931;DHT22;20215;53.130;6.408;2022-09-06T00:18:45;27.90;50.40
33931;DHT22;20215;53.130;6.408;2022-09-06T00:21:26;27.80;50.40
33931;DHT22;20215;53.130;6.408;2022-09-06T00:23:52;27.80;50.40
33931;DHT22;20215;53.130;6.408;2022-09-06T00:26:19;27.80;50.40
33931;DHT22;20215;53.130;6.408;2022-09-06T00:28:45;27.80;50.40
33931;DHT22;20215;53.130;6.408;2022-09-06T00:33:37;27.70;50.30
33931;DHT22;20215;53.130;6.408;2022-09-06T00:36:03;27.70;50.30
33931;DHT22;20215;53.130;6.408;2022-09-06T00:38:29;27.70;50.30
33931;DHT22;20215;53.130;6.408;2022-09-06T00:40:55;27.70;50.40
33931;DHT22;20215;53.130;6.408;2022-09-06T00:43:21;27.70;50.40
33931;DHT22;20215;53.130;6.408;2022-09-06T00:45:47;27.70;50.40
33931;DHT22;20215;53.130;6.408;2022-09-06T00:48:13;27.70;50.40
33931;DHT22;20215;53.130;6.408;2022-09-06T00:50:39;27.70;50.40
33931;DHT22;20215;53.130;6.408;2022-09-06T00:53:05;27.70;50.50
33931;DHT22;20215;53.130;6.408;2022-09-06T00:55:31;27.70;50.50
33931;DHT22;20215;53.130;6.408;2022-09-06T00:57:57;27.70;50.50
33931;DHT22;20215;53.130;6.408;2022-09-06T01:00:22;27.70;50.50
33931;DHT22;20215;53.130;6.408;2022-09-06T01:02:48;27.70;50.50
33931;DHT22;20215;53.130;6.408;2022-09-06T01:05:14;27.70;50.50
33931;DHT22;20215;53.130;6.408;2022-09-06T01:10:38;27.60;50.50
33931;DHT22;20215;53.130;6.408;2022-09-06T01:13:47;27.60;50.40
33931;DHT22;20215;53.130;6.408;2022-09-06T01:25:03;27.60;50.70
33931;DHT22;20215;53.130;6.408;2022-09-06T01:27:52;27.60;50.70
33931;DHT22;20215;53.130;6.408;2022-09-06T01:30:27;27.50;50.60
33931;DHT22;20215;53.130;6.408;2022-09-06T01:33:18;27.50;50.70
33931;DHT22;20215;53.130;6.408;2022-09-06T01:35:56;27.60;50.70
33931;DHT22;20215;53.130;6.408;2022-09-06T01:38:22;27.50;50.70
33931;DHT22;20215;53.130;6.408;2022-09-06T01:40:48;27.50;50.70
33931;DHT22;20215;53.130;6.408;2022-09-06T01:43:26;27.50;51.20
33931;DHT22;20215;53.130;6.408;2022-09-06T01:51:15;27.50;50.60
33931;DHT22;20215;53.130;6.408;2022-09-06T02:00:07;27.50;50.80
33931;DHT22;20215;53.130;6.408;2022-09-06T02:03:07;27.50;50.70
33931;DHT22;20215;53.130;6.408;2022-09-06T02:05:50;27.40;50.70
33931;DHT22;20215;53.130;6.408;2022-09-06T02:08:22;27.40;50.80
33931;DHT22;20215;53.130;6.408;2022-09-06T02:10:55;27.40;50.80
33931;DHT22;20215;53.130;6.408;2022-09-06T02:13:23;27.40;50.80
33931;DHT22;20215;53.130;6.408;2022-09-06T02:15:55;27.40;50.80
33931;DHT22;20215;53.130;6.408;2022-09-06T02:18:26;27.40;50.70
33931;DHT22;20215;53.130;6.408;2022-09-06T02:20:56;27.40;50.70
33931;DHT22;20215;53.130;6.408;2022-09-06T02:23:26;27.40;50.80
33931;DHT22;20215;53.130;6.408;2022-09-06T02:25:56;27.40;50.80
33931;DHT22;20215;53.130;6.408;2022-09-06T02:28:24;27.40;51.20
33931;DHT22;20215;53.130;6.408;2022-09-06T02:30:55;27.40;50.80
33931;DHT22;20215;53.130;6.408;2022-09-06T02:33:27;27.40;50.80
33931;DHT22;20215;53.130;6.408;2022-09-06T02:35:53;27.40;50.80
33931;DHT22;20215;53.130;6.408;2022-09-06T02:38:23;27.40;50.80
33931;DHT22;20215;53.130;6.408;2022-09-06T02:40:52;27.30;51.00
33931;DHT22;20215;53.130;6.408;2022-09-06T02:43:19;27.30;50.90
33931;DHT22;20215;53.130;6.408;2022-09-06T02:45:46;27.30;50.90
33931;DHT22;20215;53.130;6.408;2022-09-06T02:48:11;27.30;50.80
33931;DHT22;20215;53.130;6.408;2022-09-06T02:50:39;27.30;50.80
33931;DHT22;20215;53.130;6.408;2022-09-06T02:53:10;27.30;50.80
33931;DHT22;20215;53.130;6.408;2022-09-06T02:55:37;27.30;50.80
33931;DHT22;20215;53.130;6.408;2022-09-06T02:58:04;27.40;50.90
33931;DHT22;20215;53.130;6.408;2022-09-06T03:00:34;27.30;50.80
33931;DHT22;20215;53.130;6.408;2022-09-06T03:02:59;27.30;50.80
33931;DHT22;20215;53.130;6.408;2022-09-06T03:05:26;27.30;50.80
33931;DHT22;20215;53.130;6.408;2022-09-06T03:07:52;27.30;50.80
33931;DHT22;20215;53.130;6.408;2022-09-06T03:10:19;27.30;50.80
33931;DHT22;20215;53.130;6.408;2022-09-06T03:12:45;27.30;50.80
33931;DHT22;20215;53.130;6.408;2022-09-06T03:15:12;27.30;50.80
33931;DHT22;20215;53.130;6.408;2022-09-06T03:17:39;27.30;50.70
33931;DHT22;20215;53.130;6.408;2022-09-06T03:20:06;27.30;50.80
33931;DHT22;20215;53.130;6.408;2022-09-06T03:22:31;27.30;50.80
33931;DHT22;20215;53.130;6.408;2022-09-06T03:24:57;27.30;50.80
33931;DHT22;20215;53.130;6.408;2022-09-06T03:27:23;27.30;50.80
33931;DHT22;20215;53.130;6.408;2022-09-06T03:29:49;27.30;50.80
33931;DHT22;20215;53.130;6.408;2022-09-06T03:32:14;27.30;50.80
33931;DHT22;20215;53.130;6.408;2022-09-06T03:34:40;27.30;50.80
33931;DHT22;20215;53.130;6.408;2022-09-06T03:37:06;27.30;50.80
33931;DHT22;20215;53.130;6.408;2022-09-06T03:39:32;27.20;50.70
33931;DHT22;20215;53.130;6.408;2022-09-06T03:41:58;27.20;50.80
33931;DHT22;20215;53.130;6.408;2022-09-06T03:44:23;27.20;50.70
33931;DHT22;20215;53.130;6.408;2022-09-06T03:46:49;27.20;51.00
33931;DHT22;20215;53.130;6.408;2022-09-06T03:49:16;27.20;51.00
33931;DHT22;20215;53.130;6.408;2022-09-06T03:51:42;27.20;50.90
33931;DHT22;20215;53.130;6.408;2022-09-06T03:54:08;27.20;51.00
33931;DHT22;20215;53.130;6.408;2022-09-06T03:56:34;27.20;51.00
33931;DHT22;20215;53.130;6.408;2022-09-06T03:58:59;27.20;51.10
33931;DHT22;20215;53.130;6.408;2022-09-06T04:01:25;27.20;51.20
33931;DHT22;20215;53.130;6.408;2022-09-06T04:03:51;27.20;51.10
33931;DHT22;20215;53.130;6.408;2022-09-06T04:06:17;27.20;51.20
33931;DHT22;20215;53.130;6.408;2022-09-06T04:08:43;27.20;51.20
33931;DHT22;20215;53.130;6.408;2022-09-06T04:11:09;27.20;51.40
33931;DHT22;20215;53.130;6.408;2022-09-06T04:13:38;27.20;51.30
33931;DHT22;20215;53.130;6.408;2022-09-06T04:16:04;27.20;51.10
33931;DHT22;20215;53.130;6.408;2022-09-06T04:18:30;27.20;51.20
33931;DHT22;20215;53.130;6.408;2022-09-06T04:20:59;27.20;51.10
33931;DHT22;20215;53.130;6.408;2022-09-06T04:23:27;27.20;51.00
33931;DHT22;20215;53.130;6.408;2022-09-06T04:25:54;27.20;51.10
33931;DHT22;20215;53.130;6.408;2022-09-06T04:28:21;27.20;51.10
33931;DHT22;20215;53.130;6.408;2022-09-06T04:30:58;27.20;51.10
33931;DHT22;20215;53.130;6.408;2022-09-06T04:33:25;27.20;51.10
33931;DHT22;20215;53.130;6.408;2022-09-06T04:35:58;27.20;51.20
33931;DHT22;20215;53.130;6.408;2022-09-06T04:38:28;27.20;51.10
33931;DHT22;20215;53.130;6.408;2022-09-06T04:40:54;27.20;51.10
33931;DHT22;20215;53.130;6.408;2022-09-06T04:43:21;27.20;51.10
33931;DHT22;20215;53.130;6.408;2022-09-06T04:45:47;27.20;51.00
33931;DHT22;20215;53.130;6.408;2022-09-06T04:48:12;27.20;51.00
33931;DHT22;20215;53.130;6.408;2022-09-06T04:50:39;27.20;51.10
33931;DHT22;20215;53.130;6.408;2022-09-06T04:53:05;27.20;51.10
33931;DHT22;20215;53.130;6.408;2022-09-06T04:55:31;27.20;50.90
33931;DHT22;20215;53.130;6.408;2022-09-06T04:57:58;27.20;51.00
33931;DHT22;20215;53.130;6.408;2022-09-06T05:00:29;27.10;50.80
33931;DHT22;20215;53.130;6.408;2022-09-06T05:02:56;27.10;50.70
33931;DHT22;20215;53.130;6.408;2022-09-06T05:05:22;27.10;50.80
33931;DHT22;20215;53.130;6.408;2022-09-06T05:07:53;27.10;50.90
33931;DHT22;20215;53.130;6.408;2022-09-06T05:10:20;27.10;50.90
33931;DHT22;20215;53.130;6.408;2022-09-06T05:12:51;27.10;51.00
33931;DHT22;20215;53.130;6.408;2022-09-06T05:15:18;27.10;51.00
33931;DHT22;20215;53.130;6.408;2022-09-06T05:17:44;27.10;51.10
33931;DHT22;20215;53.130;6.408;2022-09-06T05:20:11;27.10;51.10
33931;DHT22;20215;53.130;6.408;2022-09-06T05:22:37;27.10;51.20
33931;DHT22;20215;53.130;6.408;2022-09-06T05:25:03;27.10;51.50
33931;DHT22;20215;53.130;6.408;2022-09-06T05:27:30;27.10;51.40
33931;DHT22;20215;53.130;6.408;2022-09-06T05:29:55;27.10;51.50
33931;DHT22;20215;53.130;6.408;2022-09-06T05:32:21;27.10;51.50
33931;DHT22;20215;53.130;6.408;2022-09-06T05:34:47;27.10;51.50
33931;DHT22;20215;53.130;6.408;2022-09-06T05:37:13;27.10;51.50
33931;DHT22;20215;53.130;6.408;2022-09-06T05:39:38;27.10;51.50
33931;DHT22;20215;53.130;6.408;2022-09-06T05:42:04;27.10;51.60
33931;DHT22;20215;53.130;6.408;2022-09-06T05:44:35;27.10;51.60
33931;DHT22;20215;53.130;6.408;2022-09-06T05:47:03;27.10;51.60
33931;DHT22;20215;53.130;6.408;2022-09-06T05:49:30;27.10;51.60
33931;DHT22;20215;53.130;6.408;2022-09-06T05:51:56;27.00;52.00
33931;DHT22;20215;53.130;6.408;2022-09-06T05:54:23;27.00;51.60
33931;DHT22;20215;53.130;6.408;2022-09-06T05:56:48;27.00;51.60
33931;DHT22;20215;53.130;6.408;2022-09-06T05:59:14;27.10;51.70
33931;DHT22;20215;53.130;6.408;2022-09-06T06:02:06;27.10;51.70
33931;DHT22;20215;53.130;6.408;2022-09-06T06:04:32;27.00;51.50
33931;DHT22;20215;53.130;6.408;2022-09-06T06:06:57;27.00;51.60
33931;DHT22;20215;53.130;6.408;2022-09-06T06:09:23;27.00;51.70
33931;DHT22;20215;53.130;6.408;2022-09-06T06:11:49;27.00;51.70
33931;DHT22;20215;53.130;6.408;2022-09-06T06:14:15;27.00;51.70
33931;DHT22;20215;53.130;6.408;2022-09-06T06:16:40;27.00;51.70
33931;DHT22;20215;53.130;6.408;2022-09-06T06:19:06;27.00;51.70
33931;DHT22;20215;53.130;6.408;2022-09-06T06:21:32;27.00;51.70
33931;DHT22;20215;53.130;6.408;2022-09-06T06:24:03;27.00;51.70
33931;DHT22;20215;53.130;6.408;2022-09-06T06:26:31;27.10;51.70
33931;DHT22;20215;53.130;6.408;2022-09-06T06:28:56;27.00;51.60
33931;DHT22;20215;53.130;6.408;2022-09-06T06:31:29;27.10;51.70
33931;DHT22;20215;53.130;6.408;2022-09-06T06:40:19;27.00;51.70
33931;DHT22;20215;53.130;6.408;2022-09-06T06:42:46;26.90;52.00
33931;DHT22;20215;53.130;6.408;2022-09-06T06:45:14;27.00;52.00
33931;DHT22;20215;53.130;6.408;2022-09-06T06:47:42;27.00;51.90
33931;DHT22;20215;53.130;6.408;2022-09-06T06:50:08;27.00;51.80
33931;DHT22;20215;53.130;6.408;2022-09-06T06:52:34;27.00;51.80
33931;DHT22;20215;53.130;6.408;2022-09-06T06:54:59;27.00;51.80
33931;DHT22;20215;53.130;6.408;2022-09-06T06:57:25;27.00;51.90
33931;DHT22;20215;53.130;6.408;2022-09-06T06:59:51;27.00;51.80
33931;DHT22;20215;53.130;6.408;2022-09-06T07:02:16;27.00;51.80
33931;DHT22;20215;53.130;6.408;2022-09-06T07:04:42;27.00;51.80
33931;DHT22;20215;53.130;6.408;2022-09-06T07:07:08;27.00;51.80
33931;DHT22;20215;53.130;6.408;2022-09-06T07:09:33;27.10;51.90
33931;DHT22;20215;53.130;6.408;2022-09-06T07:12:01;27.00;51.80
33931;DHT22;20215;53.130;6.408;2022-09-06T07:14:27;27.10;51.90
33931;DHT22;20215;53.130;6.408;2022-09-06T07:16:53;27.00;51.80
33931;DHT22;20215;53.130;6.408;2022-09-06T07:19:23;27.10;51.80
33931;DHT22;20215;53.130;6.408;2022-09-06T07:21:49;27.00;51.80
33931;DHT22;20215;53.130;6.408;2022-09-06T07:24:14;27.10;51.90
33931;DHT22;20215;53.130;6.408;2022-09-06T07:26:40;27.10;51.80
33931;DHT22;20215;53.130;6.408;2022-09-06T07:29:06;27.10;51.70
33931;DHT22;20215;53.130;6.408;2022-09-06T07:31:32;27.20;51.70
33931;DHT22;20215;53.130;6.408;2022-09-06T07:33:58;27.20;51.50
33931;DHT22;20215;53.130;6.408;2022-09-06T07:36:24;27.30;51.40
33931;DHT22;20215;53.130;6.408;2022-09-06T07:38:50;27.40;51.30
33931;DHT22;20215;53.130;6.408;2022-09-06T07:41:17;27.40;51.20
33931;DHT22;20215;53.130;6.408;2022-09-06T07:43:43;27.40;51.20
33931;DHT22;20215;53.130;6.408;2022-09-06T07:46:10;27.40;51.10
33931;DHT22;20215;53.130;6.408;2022-09-06T07:48:37;27.40;51.10
33931;DHT22;20215;53.130;6.408;2022-09-06T07:51:14;27.50;51.00
33931;DHT22;20215;53.130;6.408;2022-09-06T07:53:48;27.60;51.00
33931;DHT22;20215;53.130;6.408;2022-09-06T07:56:15;27.60;50.80
33931;DHT22;20215;53.130;6.408;2022-09-06T07:58:42;27.60;50.80
33931;DHT22;20215;53.130;6.408;2022-09-06T08:01:33;27.60;50.80
33931;DHT22;20215;53.130;6.408;2022-09-06T08:04:01;27.60;50.70
33931;DHT22;20215;53.130;6.408;2022-09-06T08:06:28;27.60;50.80
33931;DHT22;20215;53.130;6.408;2022-09-06T08:08:55;27.70;50.80
33931;DHT22;20215;53.130;6.408;2022-09-06T08:11:21;27.70;50.70
33931;DHT22;20215;53.130;6.408;2022-09-06T08:13:50;27.70;50.60
33931;DHT22;20215;53.130;6.408;2022-09-06T08:16:16;27.80;50.50
33931;DHT22;20215;53.130;6.408;2022-09-06T08:18:42;27.80;50.90
33931;DHT22;20215;53.130;6.408;2022-09-06T08:21:12;27.90;50.30
33931;DHT22;20215;53.130;6.408;2022-09-06T08:23:38;28.00;50.20
33931;DHT22;20215;53.130;6.408;2022-09-06T08:26:07;28.00;50.10
33931;DHT22;20215;53.130;6.408;2022-09-06T08:28:33;28.10;50.10
33931;DHT22;20215;53.130;6.408;2022-09-06T08:31:16;28.20;50.00
33931;DHT22;20215;53.130;6.408;2022-09-06T08:33:42;28.20;49.80
33931;DHT22;20215;53.130;6.408;2022-09-06T08:36:09;28.30;49.80
33931;DHT22;20215;53.130;6.408;2022-09-06T08:38:36;28.30;49.80
33931;DHT22;20215;53.130;6.408;2022-09-06T08:43:37;28.30;49.60
33931;DHT22;20215;53.130;6.408;2022-09-06T08:46:03;28.40;49.60
33931;DHT22;20215;53.130;6.408;2022-09-06T08:48:35;28.50;50.10
33931;DHT22;20215;53.130;6.408;2022-09-06T08:51:21;28.50;49.50
33931;DHT22;20215;53.130;6.408;2022-09-06T08:53:55;28.60;49.50
33931;DHT22;20215;53.130;6.408;2022-09-06T08:56:32;28.60;49.40
33931;DHT22;20215;53.130;6.408;2022-09-06T09:01:56;28.70;49.20
33931;DHT22;20215;53.130;6.408;2022-09-06T09:04:25;28.80;49.10
33931;DHT22;20215;53.130;6.408;2022-09-06T09:06:58;28.80;49.00
33931;DHT22;20215;53.130;6.408;2022-09-06T09:09:24;28.80;48.90
33931;DHT22;20215;53.130;6.408;2022-09-06T09:11:51;28.80;48.80
33931;DHT22;20215;53.130;6.408;2022-09-06T09:14:27;28.80;49.10
33931;DHT22;20215;53.130;6.408;2022-09-06T09:17:02;28.70;49.10
33931;DHT22;20215;53.130;6.408;2022-09-06T09:19:29;28.70;49.10
33931;DHT22;20215;53.130;6.408;2022-09-06T09:21:58;28.80;49.10
33931;DHT22;20215;53.130;6.408;2022-09-06T09:24:23;28.80;49.00
33931;DHT22;20215;53.130;6.408;2022-09-06T09:27:08;28.90;48.90
33931;DHT22;20215;53.130;6.408;2022-09-06T09:32:46;29.10;48.70
33931;DHT22;20215;53.130;6.408;2022-09-06T09:35:16;29.10;48.50
33931;DHT22;20215;53.130;6.408;2022-09-06T09:37:42;29.10;48.50
33931;DHT22;20215;53.130;6.408;2022-09-06T09:40:50;29.20;48.50
33931;DHT22;20215;53.130;6.408;2022-09-06T09:43:32;29.20;48.30
33931;DHT22;20215;53.130;6.408;2022-09-06T09:51:26;29.30;48.20
33931;DHT22;20215;53.130;6.408;2022-09-06T09:53:57;29.30;48.10
33931;DHT22;20215;53.130;6.408;2022-09-06T09:56:25;29.40;48.00
33931;DHT22;20215;53.130;6.408;2022-09-06T09:58:52;29.50;48.00
33931;DHT22;20215;53.130;6.408;2022-09-06T10:01:24;29.50;48.10
33931;DHT22;20215;53.130;6.408;2022-09-06T10:03:51;29.60;47.90
33931;DHT22;20215;53.130;6.408;2022-09-06T10:06:25;29.70;47.70
33931;DHT22;20215;53.130;6.408;2022-09-06T10:08:51;29.80;47.50
33931;DHT22;20215;53.130;6.408;2022-09-06T10:11:55;29.90;47.40
33931;DHT22;20215;53.130;6.408;2022-09-06T10:14:28;30.00;47.00
33931;DHT22;20215;53.130;6.408;2022-09-06T10:16:57;30.10;47.50
33931;DHT22;20215;53.130;6.408;2022-09-06T10:22:06;30.30;46.50
33931;DHT22;20215;53.130;6.408;2022-09-06T10:27:27;30.60;45.90
33931;DHT22;20215;53.130;6.408;2022-09-06T10:30:04;30.70;45.90
33931;DHT22;20215;53.130;6.408;2022-09-06T10:32:58;30.90;45.50
33931;DHT22;20215;53.130;6.408;2022-09-06T10:35:35;31.10;45.10
33931;DHT22;20215;53.130;6.408;2022-09-06T10:41:16;31.50;44.30
33931;DHT22;20215;53.130;6.408;2022-09-06T10:46:24;32.40;42.90
33931;DHT22;20215;53.130;6.408;2022-09-06T10:48:51;33.10;41.60
33931;DHT22;20215;53.130;6.408;2022-09-06T10:51:48;34.20;40.60
33931;DHT22;20215;53.130;6.408;2022-09-06T10:54:25;34.90;39.70
33931;DHT22;20215;53.130;6.408;2022-09-06T10:59:39;35.10;38.60
33931;DHT22;20215;53.130;6.408;2022-09-06T11:04:47;35.80;37.90
33931;DHT22;20215;53.130;6.408;2022-09-06T11:07:37;36.50;37.40
33931;DHT22;20215;53.130;6.408;2022-09-06T11:10:17;37.20;36.60
33931;DHT22;20215;53.130;6.408;2022-09-06T11:13:09;37.80;35.90
33931;DHT22;20215;53.130;6.408;2022-09-06T11:18:18;38.80;35.30
33931;DHT22;20215;53.130;6.408;2022-09-06T11:28:37;39.90;33.40
33931;DHT22;20215;53.130;6.408;2022-09-06T11:31:04;40.20;33.10
33931;DHT22;20215;53.130;6.408;2022-09-06T11:33:33;40.50;32.90
33931;DHT22;20215;53.130;6.408;2022-09-06T11:38:56;40.70;32.60
33931;DHT22;20215;53.130;6.408;2022-09-06T11:41:40;40.90;32.20
33931;DHT22;20215;53.130;6.408;2022-09-06T11:44:07;41.00;32.10
33931;DHT22;20215;53.130;6.408;2022-09-06T11:51:54;41.40;31.60
33931;DHT22;20215;53.130;6.408;2022-09-06T11:54:24;41.50;31.50
33931;DHT22;20215;53.130;6.408;2022-09-06T11:59:33;41.60;31.60
33931;DHT22;20215;53.130;6.408;2022-09-06T12:02:06;41.60;31.50
33931;DHT22;20215;53.130;6.408;2022-09-06T12:07:25;41.90;31.30
33931;DHT22;20215;53.130;6.408;2022-09-06T12:09:51;42.10;31.30
33931;DHT22;20215;53.130;6.408;2022-09-06T12:12:46;42.10;31.20
33931;DHT22;20215;53.130;6.408;2022-09-06T12:17:50;42.10;31.10
33931;DHT22;20215;53.130;6.408;2022-09-06T12:26:01;42.10;31.10
33931;DHT22;20215;53.130;6.408;2022-09-06T12:28:31;42.20;31.00
33931;DHT22;20215;53.130;6.408;2022-09-06T12:31:00;42.20;31.00
33931;DHT22;20215;53.130;6.408;2022-09-06T12:33:36;41.50;31.00
33931;DHT22;20215;53.130;6.408;2022-09-06T12:36:23;40.60;32.00
33931;DHT22;20215;53.130;6.408;2022-09-06T12:39:03;40.80;32.40
33931;DHT22;20215;53.130;6.408;2022-09-06T12:41:38;40.90;32.20
33931;DHT22;20215;53.130;6.408;2022-09-06T12:44:04;40.50;32.50
33931;DHT22;20215;53.130;6.408;2022-09-06T12:46:32;40.20;32.70
33931;DHT22;20215;53.130;6.408;2022-09-06T12:49:07;39.50;33.90
33931;DHT22;20215;53.130;6.408;2022-09-06T12:51:34;39.90;33.90
33931;DHT22;20215;53.130;6.408;2022-09-06T12:54:21;40.40;33.60
33931;DHT22;20215;53.130;6.408;2022-09-06T12:56:48;40.80;33.00
33931;DHT22;20215;53.130;6.408;2022-09-06T12:59:20;41.20;32.80
33931;DHT22;20215;53.130;6.408;2022-09-06T13:02:07;41.30;32.50
33931;DHT22;20215;53.130;6.408;2022-09-06T13:07:23;41.50;32.20
33931;DHT22;20215;53.130;6.408;2022-09-06T13:09:53;41.50;32.30
33931;DHT22;20215;53.130;6.408;2022-09-06T13:12:26;41.40;32.20
33931;DHT22;20215;53.130;6.408;2022-09-06T13:14:56;41.20;32.50
33931;DHT22;20215;53.130;6.408;2022-09-06T13:17:26;40.40;33.20
33931;DHT22;20215;53.130;6.408;2022-09-06T13:19:53;40.10;33.40
33931;DHT22;20215;53.130;6.408;2022-09-06T13:25:16;38.00;36.10
33931;DHT22;20215;53.130;6.408;2022-09-06T13:27:49;37.00;36.60
33931;DHT22;20215;53.130;6.408;2022-09-06T13:30:38;35.90;38.00
33931;DHT22;20215;53.130;6.408;2022-09-06T13:33:07;35.50;39.40
33931;DHT22;20215;53.130;6.408;2022-09-06T13:36:03;34.80;39.60
33931;DHT22;20215;53.130;6.408;2022-09-06T13:38:46;34.40;40.80
33931;DHT22;20215;53.130;6.408;2022-09-06T13:46:33;37.30;38.10
33931;DHT22;20215;53.130;6.408;2022-09-06T13:49:01;37.00;37.10
33931;DHT22;20215;53.130;6.408;2022-09-06T13:51:27;36.20;38.30
33931;DHT22;20215;53.130;6.408;2022-09-06T13:54:13;35.90;38.90
33931;DHT22;20215;53.130;6.408;2022-09-06T13:56:40;35.40;38.90
33931;DHT22;20215;53.130;6.408;2022-09-06T13:59:07;35.30;39.90
33931;DHT22;20215;53.130;6.408;2022-09-06T14:01:40;35.80;39.50
33931;DHT22;20215;53.130;6.408;2022-09-06T14:04:06;36.10;39.20
33931;DHT22;20215;53.130;6.408;2022-09-06T14:06:34;35.80;39.40
33931;DHT22;20215;53.130;6.408;2022-09-06T14:09:03;35.70;39.50
33931;DHT22;20215;53.130;6.408;2022-09-06T14:11:35;34.80;40.20
33931;DHT22;20215;53.130;6.408;2022-09-06T14:14:01;34.60;41.20
33931;DHT22;20215;53.130;6.408;2022-09-06T14:16:26;34.60;41.50
33931;DHT22;20215;53.130;6.408;2022-09-06T14:18:52;34.50;41.40
33931;DHT22;20215;53.130;6.408;2022-09-06T14:21:17;34.20;41.40
33931;DHT22;20215;53.130;6.408;2022-09-06T14:23:47;34.10;41.70
33931;DHT22;20215;53.130;6.408;2022-09-06T14:26:15;34.00;41.90
33931;DHT22;20215;53.130;6.408;2022-09-06T14:28:40;33.90;42.00
33931;DHT22;20215;53.130;6.408;2022-09-06T14:31:15;33.80;42.20
33931;DHT22;20215;53.130;6.408;2022-09-06T14:33:41;33.60;42.20
33931;DHT22;20215;53.130;6.408;2022-09-06T14:36:15;33.60;42.40
33931;DHT22;20215;53.130;6.408;2022-09-06T14:38:43;33.50;42.50
33931;DHT22;20215;53.130;6.408;2022-09-06T14:41:11;33.40;42.70
33931;DHT22;20215;53.130;6.408;2022-09-06T14:43:46;33.40;42.70
33931;DHT22;20215;53.130;6.408;2022-09-06T14:46:13;33.40;42.70
33931;DHT22;20215;53.130;6.408;2022-09-06T14:48:40;33.30;42.80
33931;DHT22;20215;53.130;6.408;2022-09-06T14:53:41;33.00;42.90
33931;DHT22;20215;53.130;6.408;2022-09-06T14:56:08;32.80;43.40
33931;DHT22;20215;53.130;6.408;2022-09-06T14:58:36;32.60;43.50
33931;DHT22;20215;53.130;6.408;2022-09-06T15:01:15;32.30;44.10
33931;DHT22;20215;53.130;6.408;2022-09-06T15:03:44;32.20;44.40
33931;DHT22;20215;53.130;6.408;2022-09-06T15:06:16;32.00;44.60
33931;DHT22;20215;53.130;6.408;2022-09-06T15:08:42;31.90;44.70
33931;DHT22;20215;53.130;6.408;2022-09-06T15:11:09;31.80;44.80
33931;DHT22;20215;53.130;6.408;2022-09-06T15:13:36;31.80;45.00
33931;DHT22;20215;53.130;6.408;2022-09-06T15:16:04;31.80;45.10
33931;DHT22;20215;53.130;6.408;2022-09-06T15:18:30;31.80;45.00
33931;DHT22;20215;53.130;6.408;2022-09-06T15:20:56;31.90;44.70
33931;DHT22;20215;53.130;6.408;2022-09-06T15:23:21;31.80;44.90
33931;DHT22;20215;53.130;6.408;2022-09-06T15:25:51;31.80;45.00
33931;DHT22;20215;53.130;6.408;2022-09-06T15:28:17;31.60;45.20
33931;DHT22;20215;53.130;6.408;2022-09-06T15:30:46;31.60;45.20
33931;DHT22;20215;53.130;6.408;2022-09-06T15:33:13;31.60;45.30
33931;DHT22;20215;53.130;6.408;2022-09-06T15:35:40;31.60;45.40
33931;DHT22;20215;53.130;6.408;2022-09-06T15:38:07;31.50;45.50
33931;DHT22;20215;53.130;6.408;2022-09-06T15:40:33;31.40;45.50
33931;DHT22;20215;53.130;6.408;2022-09-06T15:42:59;31.40;45.60
33931;DHT22;20215;53.130;6.408;2022-09-06T15:45:25;31.40;45.80
33931;DHT22;20215;53.130;6.408;2022-09-06T15:47:53;31.30;45.80
33931;DHT22;20215;53.130;6.408;2022-09-06T15:50:20;31.40;45.90
33931;DHT22;20215;53.130;6.408;2022-09-06T15:52:46;31.30;45.80
33931;DHT22;20215;53.130;6.408;2022-09-06T15:55:12;31.30;45.90
33931;DHT22;20215;53.130;6.408;2022-09-06T15:57:56;31.30;45.90
33931;DHT22;20215;53.130;6.408;2022-09-06T16:00:22;31.30;45.90
33931;DHT22;20215;53.130;6.408;2022-09-06T16:02:48;31.30;45.90
33931;DHT22;20215;53.130;6.408;2022-09-06T16:05:14;31.30;45.90
33931;DHT22;20215;53.130;6.408;2022-09-06T16:07:40;31.30;45.90
33931;DHT22;20215;53.130;6.408;2022-09-06T16:10:10;31.20;46.10
33931;DHT22;20215;53.130;6.408;2022-09-06T16:12:37;31.20;46.30
33931;DHT22;20215;53.130;6.408;2022-09-06T16:15:03;31.10;46.30
33931;DHT22;20215;53.130;6.408;2022-09-06T16:17:28;31.10;46.40
33931;DHT22;20215;53.130;6.408;2022-09-06T16:19:55;31.10;46.40
33931;DHT22;20215;53.130;6.408;2022-09-06T16:22:21;31.10;46.30
33931;DHT22;20215;53.130;6.408;2022-09-06T16:24:47;31.10;46.30
33931;DHT22;20215;53.130;6.408;2022-09-06T16:27:13;31.10;46.40
33931;DHT22;20215;53.130;6.408;2022-09-06T16:29:39;31.10;46.40
33931;DHT22;20215;53.130;6.408;2022-09-06T16:32:04;31.10;46.40
33931;DHT22;20215;53.130;6.408;2022-09-06T16:34:30;31.00;46.40
33931;DHT22;20215;53.130;6.408;2022-09-06T16:36:56;31.00;46.40
33931;DHT22;20215;53.130;6.408;2022-09-06T16:39:22;31.00;46.40
33931;DHT22;20215;53.130;6.408;2022-09-06T16:41:48;31.00;46.40
33931;DHT22;20215;53.130;6.408;2022-09-06T16:44:16;31.00;46.50
33931;DHT22;20215;53.130;6.408;2022-09-06T16:46:44;30.90;46.50
33931;DHT22;20215;53.130;6.408;2022-09-06T16:49:09;30.80;46.60
33931;DHT22;20215;53.130;6.408;2022-09-06T16:51:35;30.80;46.80
33931;DHT22;20215;53.130;6.408;2022-09-06T16:54:02;30.70;47.00
33931;DHT22;20215;53.130;6.408;2022-09-06T16:56:30;30.60;47.10
33931;DHT22;20215;53.130;6.408;2022-09-06T17:01:28;30.50;47.30
33931;DHT22;20215;53.130;6.408;2022-09-06T17:03:54;30.40;47.90
33931;DHT22;20215;53.130;6.408;2022-09-06T17:06:21;30.40;47.50
33931;DHT22;20215;53.130;6.408;2022-09-06T17:08:47;30.30;47.60
33931;DHT22;20215;53.130;6.408;2022-09-06T17:11:18;30.30;47.70
33931;DHT22;20215;53.130;6.408;2022-09-06T17:13:46;30.20;47.70
33931;DHT22;20215;53.130;6.408;2022-09-06T17:16:12;30.20;47.80
33931;DHT22;20215;53.130;6.408;2022-09-06T17:18:58;30.20;47.90
33931;DHT22;20215;53.130;6.408;2022-09-06T17:21:26;30.20;48.00
33931;DHT22;20215;53.130;6.408;2022-09-06T17:23:55;30.10;48.00
33931;DHT22;20215;53.130;6.408;2022-09-06T17:26:23;30.10;48.00
33931;DHT22;20215;53.130;6.408;2022-09-06T17:28:49;30.10;48.20
33931;DHT22;20215;53.130;6.408;2022-09-06T17:31:16;30.00;48.10
33931;DHT22;20215;53.130;6.408;2022-09-06T17:33:45;30.00;48.20
33931;DHT22;20215;53.130;6.408;2022-09-06T17:36:14;30.00;48.30